Time;durP1;ratioP1;P1;durP2;ratioP2;P2;SDS_P1;SDS_P2;PMS_P1;PMS_P2;Temp;Humidity;BMP_temperature;BMP_pressure;BME280_temperature;BME280_humidity;BME280_pressure;Samples;Min_cycle;Max_cycle;Signal;HPM_P1;HPM_P2
2022/05/26 00:01:14;;;;;;;29.20;21.70;;;;;;;11.18;89.46;98563.78;106231;1278;138678;-80
2022/05/26 00:03:43;;;;;;;33.00;23.00;;;;;;;11.15;89.36;98564.61;106276;1277;22569;-80
2022/05/26 00:06:13;;;;;;;30.40;22.50;;;;;;;11.11;89.22;98565.68;107002;1277;137622;-80
2022/05/26 00:08:53;;;;;;;31.70;23.10;;;;;;;11.07;89.14;98566.05;106357;1277;22620;-80
2022/05/26 00:11:37;;;;;;;30.50;22.60;;;;;;;11.02;89.31;98564.77;106194;1281;138162;-80
2022/05/26 00:14:07;;;;;;;33.30;22.90;;;;;;;10.99;89.04;98563.67;106742;1277;22620;-81
2022/05/26 00:16:36;;;;;;;33.90;24.40;;;;;;;10.95;89.63;98559.46;106252;1277;22564;-80
2022/05/26 00:19:18;;;;;;;35.10;24.50;;;;;;;10.93;89.64;98555.71;106776;1277;137566;-81
2022/05/26 00:21:49;;;;;;;34.70;24.50;;;;;;;10.87;89.27;98556.80;106373;1277;25355;-80
2022/05/26 00:24:18;;;;;;;34.00;24.00;;;;;;;10.81;89.47;98561.39;106362;1277;138447;-80
2022/05/26 00:26:45;;;;;;;;;;;;;;;10.77;89.32;98564.40;106639;1278;22644;-80
2022/05/26 00:29:14;;;;;;;33.20;24.50;;;;;;;10.75;89.74;98563.89;106069;1279;25257;-82
2022/05/26 00:31:41;;;;;;;36.30;24.30;;;;;;;10.74;90.08;98567.09;106265;1277;137470;-81
2022/05/26 00:34:08;;;;;;;32.80;23.40;;;;;;;10.72;89.90;98560.40;106337;1277;24443;-82
2022/05/26 00:36:38;;;;;;;39.00;25.30;;;;;;;10.70;89.95;98562.39;105775;1278;138458;-82
2022/05/26 00:39:22;;;;;;;37.30;23.60;;;;;;;10.69;90.02;98567.60;106271;1277;25308;-81
2022/05/26 00:42:05;;;;;;;31.00;23.50;;;;;;;10.70;89.99;98568.27;106279;1278;138637;-81
2022/05/26 00:44:33;;;;;;;;;;;;;;;10.68;90.11;98569.30;106855;1277;22694;-80
2022/05/26 00:47:05;;;;;;;33.10;23.20;;;;;;;10.67;90.10;98572.22;106174;1277;24297;-80
2022/05/26 00:49:45;;;;;;;31.10;21.20;;;;;;;10.62;89.85;98571.81;106164;1277;138445;-80
2022/05/26 00:52:37;;;;;;;33.80;23.70;;;;;;;10.61;90.30;98572.67;106175;1277;22684;-81
2022/05/26 00:55:10;;;;;;;29.30;22.00;;;;;;;10.59;90.53;98569.37;106162;1277;138201;-81
2022/05/26 00:57:39;;;;;;;30.30;22.20;;;;;;;10.60;90.31;98568.71;106349;1278;22528;-81
2022/05/26 01:00:19;;;;;;;33.40;23.70;;;;;;;10.58;89.61;98573.91;106764;1278;137489;-80
2022/05/26 01:03:07;;;;;;;31.10;21.90;;;;;;;10.54;89.71;98576.59;106309;1278;24432;-82
2022/05/26 01:05:57;;;;;;;30.30;22.00;;;;;;;10.52;89.60;98581.25;106107;1277;138431;-80
2022/05/26 01:08:53;;;;;;;27.80;20.60;;;;;;;10.47;89.45;98581.31;106325;1277;25494;-81
2022/05/26 01:11:22;;;;;;;29.00;21.90;;;;;;;10.42;89.56;98578.88;106061;1277;138105;-80
2022/05/26 01:13:58;;;;;;;29.90;21.60;;;;;;;10.38;89.41;98579.82;106031;1278;24402;-80
2022/05/26 01:16:53;;;;;;;26.50;20.00;;;;;;;10.33;89.66;98576.82;106139;1277;22561;-81
2022/05/26 01:19:40;;;;;;;27.70;20.80;;;;;;;10.28;89.34;98579.20;105949;1277;138198;-80
2022/05/26 01:22:30;;;;;;;24.80;19.00;;;;;;;10.23;89.58;98573.14;106181;1277;30448;-81
2022/05/26 01:25:25;;;;;;;31.30;20.60;;;;;;;10.23;89.67;98572.89;106015;1277;138080;-81
2022/05/26 01:28:19;;;;;;;30.20;20.90;;;;;;;10.21;89.74;98578.08;106404;1277;25363;-81
2022/05/26 01:31:02;;;;;;;30.60;21.20;;;;;;;10.18;89.39;98573.55;106046;1277;138148;-81
2022/05/26 01:33:57;;;;;;;28.30;21.00;;;;;;;10.15;89.64;98569.46;106006;1277;22622;-81
2022/05/26 01:36:36;;;;;;;27.90;19.30;;;;;;;10.11;89.37;98570.36;106034;1279;138693;-80
2022/05/26 01:39:28;;;;;;;29.10;21.60;;;;;;;10.10;89.59;98574.69;106109;1277;24323;-82
2022/05/26 01:42:04;;;;;;;29.70;21.80;;;;;;;10.08;89.60;98577.05;106015;1277;138396;-82
2022/05/26 01:44:53;;;;;;;29.40;20.10;;;;;;;10.03;89.53;98578.04;106140;1277;22612;-82
2022/05/26 01:47:38;;;;;;;27.30;20.60;;;;;;;9.99;89.47;98579.79;106506;1277;25269;-80
2022/05/26 01:50:22;;;;;;;26.60;19.80;;;;;;;9.94;89.68;98583.41;106430;1278;24424;-81
2022/05/26 01:52:57;;;;;;;29.30;19.80;;;;;;;9.90;89.95;98580.02;106238;1277;30347;-81
2022/05/26 01:55:45;;;;;;;28.20;19.20;;;;;;;9.92;89.98;98583.66;106145;1277;138458;-81
2022/05/26 01:58:37;;;;;;;25.80;19.20;;;;;;;9.90;89.90;98588.99;106404;1277;22694;-81
2022/05/26 02:01:14;;;;;;;23.90;17.30;;;;;;;9.87;89.89;98598.46;105939;1277;137907;-81
2022/05/26 02:03:46;;;;;;;25.30;19.30;;;;;;;9.85;89.77;98601.18;106192;1278;25359;-80
2022/05/26 02:06:22;;;;;;;25.00;18.40;;;;;;;9.84;89.73;98601.83;106375;1277;138382;-80
2022/05/26 02:09:13;;;;;;;25.30;18.50;;;;;;;9.82;89.59;98597.96;106367;1277;25365;-81
2022/05/26 02:11:53;;;;;;;27.30;18.80;;;;;;;9.81;89.54;98598.45;106465;1277;22560;-81
2022/05/26 02:14:32;;;;;;;28.50;19.30;;;;;;;9.77;89.72;98597.25;106341;1277;137562;-80
2022/05/26 02:17:07;;;;;;;26.00;18.80;;;;;;;9.76;89.64;98598.50;106430;1277;25341;-81
2022/05/26 02:19:41;;;;;;;27.20;18.90;;;;;;;9.72;89.51;98599.69;106052;1278;138296;-80
2022/05/26 02:22:43;;;;;;;24.40;18.20;;;;;;;9.70;89.46;98601.48;106442;1278;22618;-81
2022/05/26 02:25:18;;;;;;;27.90;19.60;;;;;;;9.68;89.67;98599.38;105875;1278;137806;-80
2022/05/26 02:27:49;;;;;;;28.70;19.00;;;;;;;9.65;89.69;98596.91;106634;1277;25269;-80
2022/05/26 02:30:21;;;;;;;26.40;19.50;;;;;;;9.62;89.61;98600.09;106493;1277;138380;-81
2022/05/26 02:32:50;;;;;;;25.80;18.30;;;;;;;9.57;89.65;98596.77;106610;1277;22605;-81
2022/05/26 02:35:22;;;;;;;24.70;18.40;;;;;;;9.56;90.08;98592.73;106476;1278;24417;-81
2022/05/26 02:37:54;;;;;;;26.00;18.70;;;;;;;9.58;90.19;98597.02;106466;1278;138311;-80
2022/05/26 02:40:22;;;;;;;31.40;19.90;;;;;;;9.59;90.29;98598.66;106237;1277;25264;-81
2022/05/26 02:42:54;;;;;;;25.60;18.80;;;;;;;9.59;90.17;98595.11;105969;1278;138238;-80
2022/05/26 02:45:55;;;;;;;23.80;19.00;;;;;;;9.61;90.12;98599.24;106222;1278;22621;-81
2022/05/26 02:48:46;;;;;;;25.60;18.60;;;;;;;9.62;90.02;98600.19;106092;1278;138962;-81
2022/05/26 02:51:48;;;;;;;24.90;17.40;;;;;;;9.65;89.99;98595.20;106574;1277;22566;-81
2022/05/26 02:54:17;;;;;;;27.30;18.80;;;;;;;9.68;90.20;98591.44;106300;1277;138447;-81
2022/05/26 02:57:12;;;;;;;25.20;18.50;;;;;;;9.67;89.70;98597.55;106343;1278;22631;-80
2022/05/26 02:59:53;;;;;;;27.70;19.10;;;;;;;9.68;89.72;98597.63;106321;1277;25268;-80
2022/05/26 03:02:37;;;;;;;26.00;18.40;;;;;;;9.68;89.63;98600.89;106484;1277;137934;-80
2022/05/26 03:05:20;;;;;;;26.70;18.50;;;;;;;9.69;89.59;98602.21;106491;1277;22563;-81
2022/05/26 03:07:52;;;;;;;26.60;18.90;;;;;;;9.70;89.72;98598.42;106266;1277;138044;-81
2022/05/26 03:10:28;;;;;;;23.20;17.10;;;;;;;9.72;89.69;98597.56;106494;1277;22607;-81
2022/05/26 03:12:56;;;;;;;21.80;16.80;;;;;;;9.74;89.50;98601.58;106748;1277;138125;-80
2022/05/26 03:15:23;;;;;;;22.50;16.30;;;;;;;9.76;89.12;98600.64;106457;1277;22711;-83
2022/05/26 03:17:50;;;;;;;22.00;16.00;;;;;;;9.75;88.95;98598.02;106391;1277;25413;-81
2022/05/26 03:20:18;;;;;;;23.70;15.30;;;;;;;9.75;88.95;98600.98;106245;1277;137474;-80
2022/05/26 03:22:45;;;;;;;20.50;14.80;;;;;;;9.73;89.19;98604.42;106336;1277;22544;-80
2022/05/26 03:25:14;;;;;;;22.00;15.40;;;;;;;9.75;88.99;98604.74;106273;1278;137965;-80
2022/05/26 03:27:55;;;;;;;18.60;14.00;;;;;;;9.76;88.78;98609.79;106631;1277;22688;-82
2022/05/26 03:30:24;;;;;;;20.00;14.60;;;;;;;9.76;88.80;98604.19;106214;1277;138057;-80
2022/05/26 03:32:54;;;;;;;18.90;14.70;;;;;;;9.76;88.96;98606.57;106356;1277;23176;-81
2022/05/26 03:40:53;;;;;;;18.40;12.80;;;;;;;9.82;88.46;98610.95;106532;1277;22816;-80
2022/05/26 03:43:23;;;;;;;17.70;13.40;;;;;;;9.84;88.71;98608.19;106200;1277;137751;-80
2022/05/26 03:45:50;;;;;;;19.50;13.70;;;;;;;9.86;88.46;98605.45;106725;1277;23460;-80
2022/05/26 03:48:17;;;;;;;20.90;14.20;;;;;;;9.87;88.47;98604.83;106217;1277;137638;-80
2022/05/26 03:50:44;;;;;;;20.50;13.30;;;;;;;9.92;88.53;98606.66;106480;1277;22574;-80
2022/05/26 03:53:11;;;;;;;17.60;12.30;;;;;;;9.95;88.34;98612.13;106545;1277;22538;-82
2022/05/26 03:55:40;;;;;;;19.30;13.70;;;;;;;9.98;88.08;98611.04;106377;1277;137683;-80
2022/05/26 03:58:07;;;;;;;19.60;14.30;;;;;;;10.00;88.23;98610.77;106699;1277;24299;-82
2022/05/26 04:00:35;;;;;;;18.40;13.50;;;;;;;10.02;88.21;98611.74;106366;1277;138272;-80
2022/05/26 04:03:03;;;;;;;20.60;14.30;;;;;;;10.06;88.21;98607.41;106391;1277;24268;-80
2022/05/26 04:05:30;;;;;;;17.80;13.20;;;;;;;10.09;88.05;98607.31;106746;1277;22550;-80
2022/05/26 04:07:57;;;;;;;21.20;14.00;;;;;;;10.13;88.08;98606.73;106176;1278;138523;-80
2022/05/26 04:10:24;;;;;;;19.00;14.50;;;;;;;10.17;88.12;98611.34;106264;1277;22540;-80
2022/05/26 04:13:05;;;;;;;17.50;12.90;;;;;;;10.18;88.04;98612.36;106445;1277;138390;-80
2022/05/26 04:15:32;;;;;;;20.30;13.90;;;;;;;10.19;87.83;98613.32;106455;1278;26037;-82
2022/05/26 04:17:59;;;;;;;19.40;13.20;;;;;;;10.22;87.93;98614.90;106553;1277;22566;-80
2022/05/26 04:20:26;;;;;;;19.70;14.00;;;;;;;10.23;87.97;98616.29;106530;1277;138116;-80
2022/05/26 04:22:53;;;;;;;18.40;14.60;;;;;;;10.27;88.10;98619.42;105964;1277;22635;-80
2022/05/26 04:25:22;;;;;;;23.70;12.70;;;;;;;10.27;88.07;98618.23;106474;1277;137613;-80
2022/05/26 04:27:49;;;;;;;19.20;12.20;;;;;;;10.29;88.01;98617.08;106403;1277;22602;-80
2022/05/26 04:30:16;;;;;;;16.90;11.90;;;;;;;10.32;88.24;98616.67;106291;1277;138255;-81
2022/05/26 04:32:43;;;;;;;17.20;12.60;;;;;;;10.37;88.45;98614.38;106299;1277;24217;-79
2022/05/26 04:35:11;;;;;;;16.90;13.40;;;;;;;10.43;88.39;98613.68;106407;1277;22573;-80
2022/05/26 04:37:39;;;;;;;15.70;12.00;;;;;;;10.47;88.78;98607.17;106407;1277;137831;-79
2022/05/26 04:40:09;;;;;;;15.70;12.00;;;;;;;10.51;88.56;98614.12;106688;1278;22551;-80
2022/05/26 04:42:39;;;;;;;18.10;13.50;;;;;;;10.56;88.55;98616.03;106681;1277;138523;-80
2022/05/26 04:45:10;;;;;;;16.20;12.60;;;;;;;10.64;88.78;98610.41;106688;1277;22953;-79
2022/05/26 04:47:40;;;;;;;16.50;12.40;;;;;;;10.72;88.85;98612.75;106750;1279;24244;-79
2022/05/26 04:50:08;;;;;;;16.50;12.40;;;;;;;10.80;89.00;98610.56;105864;1277;137631;-79
2022/05/26 04:52:36;;;;;;;16.70;11.90;;;;;;;10.90;88.95;98611.13;106217;1277;22563;-79
2022/05/26 04:55:05;;;;;;;15.50;11.60;;;;;;;10.97;88.93;98607.39;106280;1276;139137;-81
2022/05/26 04:57:32;;;;;;;17.00;11.90;;;;;;;11.05;88.99;98614.89;106537;1277;22698;-79
2022/05/26 05:00:16;;;;;;;18.10;13.00;;;;;;;11.12;88.69;98614.00;106335;1277;22576;-79
2022/05/26 05:02:43;;;;;;;22.30;12.90;;;;;;;11.20;88.62;98613.82;105998;1277;137728;-81
2022/05/26 05:05:12;;;;;;;16.80;11.70;;;;;;;11.30;88.96;98616.65;106899;1277;22582;-79
2022/05/26 05:07:39;;;;;;;16.30;11.40;;;;;;;11.41;88.63;98614.34;106231;1276;138329;-79
2022/05/26 05:10:07;;;;;;;17.30;10.60;;;;;;;11.50;88.49;98617.87;106604;1277;25367;-80
2022/05/26 05:12:35;;;;;;;16.40;11.40;;;;;;;11.59;88.32;98612.95;106390;1277;137981;-79
2022/05/26 05:15:07;;;;;;;20.20;11.20;;;;;;;11.70;88.23;98611.41;106211;1278;24275;-79
2022/05/26 05:17:34;;;;;;;14.10;9.90;;;;;;;11.80;87.88;98613.98;106326;1277;22583;-80
2022/05/26 05:20:02;;;;;;;19.10;9.90;;;;;;;11.88;87.75;98615.83;106373;1277;137902;-80
2022/05/26 05:23:13;;;;;;;12.50;8.20;;;;;;;11.96;87.00;98613.45;106448;1277;22560;-79
2022/05/26 05:25:44;;;;;;;13.00;8.60;;;;;;;12.01;86.89;98612.27;105768;1277;137750;-79
2022/05/26 05:28:31;;;;;;;14.40;10.00;;;;;;;12.07;86.54;98611.38;106566;1277;22709;-79
2022/05/26 05:31:27;;;;;;;14.30;9.00;;;;;;;12.13;86.56;98606.11;106137;1277;138372;-80
2022/05/26 05:33:58;;;;;;;13.50;8.50;;;;;;;12.18;86.21;98606.50;106223;1277;22583;-79
2022/05/26 05:36:29;;;;;;;14.40;8.00;;;;;;;12.23;86.33;98604.34;106411;1277;139019;-80
2022/05/26 05:38:58;;;;;;;12.50;8.50;;;;;;;12.25;86.23;98602.17;106424;1278;22544;-79
2022/05/26 05:41:27;;;;;;;12.30;9.20;;;;;;;12.29;86.11;98601.52;106741;1277;24236;-80
2022/05/26 05:43:55;;;;;;;;;;;;;;;12.33;86.14;98595.23;106078;1278;137881;-80
2022/05/26 05:46:22;;;;;;;13.20;8.90;;;;;;;12.37;85.81;98596.98;106807;1277;25526;-80
2022/05/26 05:48:49;;;;;;;14.70;8.50;;;;;;;12.44;86.22;98597.34;106331;1277;138098;-79
2022/05/26 05:51:17;;;;;;;15.20;8.40;;;;;;;12.51;86.03;98597.04;106518;1277;22543;-80
2022/05/26 05:53:45;;;;;;;12.30;8.10;;;;;;;12.60;86.22;98593.61;106300;1277;22575;-80
2022/05/26 05:56:12;;;;;;;11.90;8.20;;;;;;;12.69;86.03;98598.20;106241;1277;137800;-80
2022/05/26 05:58:39;;;;;;;10.00;8.00;;;;;;;12.79;85.86;98595.02;106776;1277;25320;-80
2022/05/26 06:01:07;;;;;;;11.50;8.00;;;;;;;12.86;85.61;98595.71;106394;1277;137942;-79
2022/05/26 06:03:35;;;;;;;12.90;8.90;;;;;;;12.97;85.71;98601.08;106426;1277;23360;-80
2022/05/26 06:06:04;;;;;;;10.40;7.60;;;;;;;13.10;85.72;98602.23;106421;1277;22573;-80
2022/05/26 06:08:44;;;;;;;13.40;8.70;;;;;;;13.22;85.71;98601.10;106464;1277;137961;-80
2022/05/26 06:11:11;;;;;;;16.10;8.80;;;;;;;13.34;85.68;98598.23;106455;1277;24273;-80
2022/05/26 06:13:38;;;;;;;11.80;7.90;;;;;;;13.43;85.02;98596.02;106304;1277;137484;-80
2022/05/26 06:16:05;;;;;;;9.00;7.90;;;;;;;13.52;84.75;98600.47;106066;1277;25390;-80
2022/05/26 06:18:32;;;;;;;10.50;7.30;;;;;;;13.61;84.50;98600.05;106431;1277;138115;-80
2022/05/26 06:21:01;;;;;;;12.20;7.60;;;;;;;13.71;84.55;98601.67;106526;1277;22540;-81
2022/05/26 06:23:28;;;;;;;7.30;6.50;;;;;;;13.81;84.54;98602.41;106408;1277;25346;-80
2022/05/26 06:25:55;;;;;;;8.30;6.60;;;;;;;13.93;84.29;98600.45;106526;1277;137753;-80
2022/05/26 06:31:04;;;;;;;13.40;6.50;;;;;;;14.13;83.31;98599.48;106382;1277;137657;-80
2022/05/26 06:39:07;;;;;;;4.20;3.90;;;;;;;14.48;81.17;98601.11;106938;1277;31869;-79
2022/05/26 06:44:17;;;;;;;4.70;3.50;;;;;;;14.71;81.11;98602.76;106632;1277;137789;-79
2022/05/26 06:46:44;;;;;;;3.80;3.00;;;;;;;14.83;80.36;98598.14;106459;1277;24263;-80
2022/05/26 06:49:11;;;;;;;5.80;3.20;;;;;;;14.94;79.49;98593.73;106882;1277;138095;-81
2022/05/26 06:51:39;;;;;;;6.80;3.20;;;;;;;15.06;79.41;98603.41;107087;1277;22565;-80
2022/05/26 06:54:07;;;;;;;5.10;3.30;;;;;;;15.14;78.15;98603.50;106506;1277;22556;-79
2022/05/26 06:56:34;;;;;;;3.40;3.10;;;;;;;15.23;77.67;98609.10;106765;1277;137617;-81
2022/05/26 06:59:01;;;;;;;6.00;3.20;;;;;;;15.30;77.56;98603.40;106651;1277;26760;-80
2022/05/26 07:01:29;;;;;;;3.50;3.20;;;;;;;15.40;77.95;98603.47;106469;1277;138026;-80
2022/05/26 07:03:57;;;;;;;5.90;3.40;;;;;;;15.52;77.83;98607.31;106456;1277;22707;-84
2022/05/26 07:06:39;;;;;;;5.50;3.10;;;;;;;15.67;77.89;98608.09;106081;1275;137266;-88
2022/05/26 07:09:05;;;;;;;4.10;3.10;;;;;;;15.77;77.03;98608.83;106377;1277;22557;-79
2022/05/26 07:11:33;;;;;;;6.70;3.70;;;;;;;15.86;76.23;98604.77;106097;1277;23687;-79
2022/05/26 07:14:01;;;;;;;7.60;3.20;;;;;;;15.94;75.69;98609.05;106181;1277;137708;-80
2022/05/26 07:16:28;;;;;;;3.90;3.10;;;;;;;16.03;74.74;98604.63;105967;1277;25478;-79
2022/05/26 07:18:56;;;;;;;4.70;4.00;;;;;;;16.12;74.57;98608.63;106643;1277;137458;-79
2022/05/26 07:21:37;;;;;;;6.60;3.80;;;;;;;16.22;74.16;98611.69;106618;1277;24304;-80
2022/05/26 07:24:05;;;;;;;4.10;3.70;;;;;;;16.32;74.10;98613.46;106309;1277;22688;-79
2022/05/26 07:26:32;;;;;;;5.10;3.80;;;;;;;16.41;73.53;98614.60;106076;1277;137156;-79
2022/05/26 07:28:59;;;;;;;4.40;3.40;;;;;;;16.54;73.00;98616.98;106462;1277;23415;-79
2022/05/26 07:31:27;;;;;;;5.20;3.60;;;;;;;16.64;72.32;98613.31;105965;1277;137311;-79
2022/05/26 07:33:55;;;;;;;4.90;3.60;;;;;;;16.78;72.48;98615.95;105987;1278;22558;-80
2022/05/26 07:41:49;;;;;;;5.00;3.30;;;;;;;17.42;69.82;98609.63;105958;1277;25279;-79
2022/05/26 07:44:38;;;;;;;4.70;3.00;;;;;;;17.59;68.87;98613.67;105969;1277;137944;-79
2022/05/26 07:47:22;;;;;;;6.10;3.30;;;;;;;17.70;68.56;98613.14;106645;1279;23069;-79
2022/05/26 07:49:49;;;;;;;2.90;2.60;;;;;;;17.91;68.63;98614.75;106723;1277;137406;-79
2022/05/26 07:52:17;;;;;;;7.40;3.20;;;;;;;18.13;67.68;98615.92;106186;1277;22776;-79
2022/05/26 07:54:44;;;;;;;6.20;2.70;;;;;;;18.33;66.82;98615.72;106094;1277;137387;-79
2022/05/26 07:57:20;;;;;;;3.70;2.60;;;;;;;18.49;66.41;98616.21;106101;1277;22547;-80
2022/05/26 07:59:48;;;;;;;3.90;3.00;;;;;;;18.60;65.01;98614.43;106636;1277;22606;-79
2022/05/26 08:02:17;;;;;;;2.70;2.50;;;;;;;18.68;65.38;98622.50;106522;1277;137666;-79
2022/05/26 08:04:44;;;;;;;3.20;2.60;;;;;;;18.78;64.50;98622.22;106237;1278;22525;-79
2022/05/26 08:07:12;;;;;;;3.30;2.10;;;;;;;18.85;63.68;98628.45;106118;1277;137094;-79
2022/05/26 08:09:40;;;;;;;3.40;2.20;;;;;;;18.89;62.83;98623.27;106122;1277;24437;-79
2022/05/26 08:12:10;;;;;;;5.50;2.90;;;;;;;18.97;62.54;98623.70;106229;1277;22777;-79
2022/05/26 08:14:39;;;;;;;3.00;2.20;;;;;;;19.12;62.83;98624.50;106174;1277;137028;-79
2022/05/26 08:17:06;;;;;;;2.80;1.70;;;;;;;19.26;61.44;98623.70;106285;1277;25315;-79
2022/05/26 08:19:34;;;;;;;6.10;1.80;;;;;;;19.33;61.00;98621.05;106218;1277;137278;-79
2022/05/26 08:22:00;;;;;;;4.60;2.30;;;;;;;19.41;60.59;98623.27;105763;1277;22538;-79
2022/05/26 08:24:28;;;;;;;3.80;1.70;;;;;;;19.39;59.63;98616.17;105524;1278;467289;-78
2022/05/26 08:26:56;;;;;;;2.70;1.60;;;;;;;19.41;60.35;98614.00;106042;1277;23312;-78
2022/05/26 08:29:24;;;;;;;2.10;1.60;;;;;;;19.52;59.06;98614.36;105867;1277;24211;-78
2022/05/26 08:31:52;;;;;;;2.10;1.80;;;;;;;19.59;57.96;98614.27;105689;1277;137183;-79
2022/05/26 08:34:20;;;;;;;4.40;1.70;;;;;;;19.63;57.20;98614.80;106191;1277;25239;-80
2022/05/26 08:36:47;;;;;;;2.70;1.40;;;;;;;19.69;58.24;98613.36;105970;1277;137537;-79
2022/05/26 08:39:31;;;;;;;2.80;1.70;;;;;;;19.74;55.73;98617.36;105823;1279;24340;-79
2022/05/26 08:41:58;;;;;;;2.60;1.70;;;;;;;19.75;55.76;98618.55;106134;1277;24577;-78
2022/05/26 08:44:31;;;;;;;2.40;1.40;;;;;;;19.73;56.00;98620.45;106194;1277;137112;-79
2022/05/26 08:47:07;;;;;;;4.90;2.30;;;;;;;19.69;56.31;98619.35;106335;1277;22847;-79
2022/05/26 08:49:51;;;;;;;4.50;2.20;;;;;;;19.75;57.34;98622.71;106066;1277;137793;-79
2022/05/26 08:52:30;;;;;;;3.90;1.90;;;;;;;19.78;57.54;98620.22;106525;1277;22554;-80
2022/05/26 08:55:17;;;;;;;5.30;1.60;;;;;;;19.87;57.66;98624.89;105985;1277;137683;-79
2022/05/26 08:58:04;;;;;;;3.60;1.60;;;;;;;19.97;57.11;98623.48;106431;1277;25257;-81
2022/05/26 09:00:31;;;;;;;2.30;1.20;;;;;;;20.15;55.98;98622.35;105844;1277;137685;-79
2022/05/26 09:03:00;;;;;;;4.60;1.70;;;;;;;20.40;56.11;98616.08;105951;1277;22535;-79
2022/05/26 09:05:40;;;;;;;3.10;1.60;;;;;;;20.64;56.57;98616.76;106063;1277;23244;-79
2022/05/26 09:12:55;;;;;;;2.90;1.70;;;;;;;20.72;54.67;98615.38;106175;1277;24293;-79
2022/05/26 09:14:26;;;;;;;4.20;1.60;;;;;;;20.71;53.85;98621.49;105789;1278;137245;-79
2022/05/26 09:17:11;;;;;;;6.70;1.30;;;;;;;20.68;53.35;98618.27;106242;1278;22751;-79
2022/05/26 09:19:44;;;;;;;1.40;1.30;;;;;;;20.62;52.50;98614.08;106082;1278;137414;-80
2022/05/26 09:22:38;;;;;;;3.20;1.30;;;;;;;20.59;52.39;98615.98;105950;1278;31491;-79
2022/05/26 09:25:12;;;;;;;5.20;1.10;;;;;;;20.53;51.30;98610.86;106037;1279;137494;-80
2022/05/26 09:27:51;;;;;;;3.60;1.10;;;;;;;20.55;51.34;98611.42;106161;1277;22563;-79
2022/05/26 09:30:24;;;;;;;1.10;1.00;;;;;;;20.53;51.04;98612.34;106218;1277;22578;-79
2022/05/26 09:32:52;;;;;;;4.20;1.30;;;;;;;20.50;50.56;98608.10;106209;1277;137492;-78
2022/05/26 09:35:19;;;;;;;3.60;1.10;;;;;;;20.58;50.96;98610.31;106032;1277;22782;-79
2022/05/26 09:37:49;;;;;;;6.20;0.90;;;;;;;20.71;50.96;98606.26;106097;1277;140988;-78
2022/05/26 09:40:21;;;;;;;2.50;1.00;;;;;;;20.87;51.04;98601.23;106354;1278;25241;-79
2022/05/26 09:42:51;;;;;;;2.30;1.00;;;;;;;21.00;49.95;98600.66;105901;1277;137887;-79
2022/05/26 09:45:20;;;;;;;1.50;1.00;;;;;;;21.12;47.55;98601.27;106180;1279;22563;-78
2022/05/26 09:47:54;;;;;;;2.20;0.90;;;;;;;21.23;46.33;98596.95;105930;1279;26606;-79
2022/05/26 09:50:40;;;;;;;2.20;1.20;;;;;;;21.25;46.31;98594.52;106252;1277;137476;-79
2022/05/26 09:53:11;;;;;;;3.60;1.10;;;;;;;21.23;47.50;98593.30;106253;1277;30317;-79
2022/05/26 09:55:48;;;;;;;3.20;1.10;;;;;;;21.32;47.06;98595.95;106190;1277;137836;-80
2022/05/26 09:58:34;;;;;;;1.30;0.70;;;;;;;21.50;46.91;98595.58;106739;1277;22606;-79
2022/05/26 10:01:05;;;;;;;3.10;1.20;;;;;;;21.56;45.39;98593.67;106200;1277;137388;-79
2022/05/26 10:04:00;;;;;;;2.80;0.80;;;;;;;21.74;46.18;98594.81;106148;1278;30575;-80
2022/05/26 10:06:32;;;;;;;2.00;1.10;;;;;;;21.99;46.29;98598.70;106491;1277;22548;-79
2022/05/26 10:09:44;;;;;;;3.90;0.90;;;;;;;22.00;45.44;98594.21;106517;1277;137156;-79
2022/05/26 10:12:31;;;;;;;1.40;1.10;;;;;;;21.79;44.83;98589.09;106092;1277;22535;-79
2022/05/26 10:15:05;;;;;;;7.70;1.10;;;;;;;21.77;44.20;98588.76;106156;1277;137158;-80
2022/05/26 10:17:44;;;;;;;3.40;1.20;;;;;;;21.95;44.00;98599.77;106437;1277;24366;-80
2022/05/26 10:20:36;;;;;;;5.30;0.80;;;;;;;22.13;43.09;98595.08;106192;1277;137040;-80
2022/05/26 10:23:34;;;;;;;7.30;1.80;;;;;;;22.34;42.15;98599.33;106144;1278;22679;-80
2022/05/26 10:26:13;;;;;;;5.80;1.10;;;;;;;22.56;42.37;98594.52;106180;1279;137267;-80
2022/05/26 10:29:17;;;;;;;2.40;0.80;;;;;;;22.58;41.39;98589.89;106663;1277;24211;-80
2022/05/26 10:32:17;;;;;;;1.00;0.90;;;;;;;22.28;41.30;98591.16;106328;1277;137308;-82
2022/05/26 10:35:20;;;;;;;4.50;1.10;;;;;;;21.85;41.61;98601.80;106190;1277;22545;-80
2022/05/26 10:38:15;;;;;;;2.40;1.00;;;;;;;21.47;42.37;98603.48;106497;1277;137194;-79
2022/05/26 10:41:05;;;;;;;1.40;1.10;;;;;;;21.14;42.69;98607.95;106746;1277;22558;-80
2022/05/26 10:43:46;;;;;;;4.30;1.20;;;;;;;20.90;43.60;98610.73;106060;1277;137597;-80
2022/05/26 10:46:14;;;;;;;5.10;1.30;;;;;;;20.82;44.25;98610.35;106382;1277;22651;-79
2022/05/26 10:48:58;;;;;;;2.90;1.00;;;;;;;20.81;43.91;98612.69;106143;1277;24318;-80
2022/05/26 10:51:45;;;;;;;2.10;1.10;;;;;;;20.83;43.84;98608.94;106646;1277;137691;-80
2022/05/26 10:54:36;;;;;;;3.60;1.00;;;;;;;20.86;43.46;98610.27;106153;1279;32481;-79
2022/05/26 10:57:25;;;;;;;3.50;1.00;;;;;;;20.93;44.04;98605.45;106443;1277;137385;-80
2022/05/26 11:00:09;;;;;;;6.20;1.30;;;;;;;21.05;43.72;98605.15;105686;1279;22608;-80
2022/05/26 11:02:59;;;;;;;2.70;1.00;;;;;;;21.20;43.72;98602.79;105928;1278;137257;-80
2022/05/26 11:05:36;;;;;;;3.10;1.20;;;;;;;21.35;43.53;98602.81;106190;1277;23959;-80
2022/05/26 11:08:25;;;;;;;2.20;1.40;;;;;;;21.38;43.42;98600.46;106184;1278;137160;-79
2022/05/26 11:11:02;;;;;;;;;;;;;;;21.41;43.64;98604.67;106087;1277;22522;-79
2022/05/26 11:13:48;;;;;;;6.70;1.50;;;;;;;21.37;44.52;98608.25;105922;1277;124003;-79
2022/05/26 11:19:43;;;;;;;2.00;1.00;;;;;;;21.24;43.68;98602.52;105696;1280;138388;-79
2022/05/26 11:22:13;;;;;;;4.70;1.00;;;;;;;21.25;43.84;98605.92;106060;1279;22635;-80
2022/05/26 11:24:46;;;;;;;1.70;1.00;;;;;;;21.33;44.28;98599.60;106012;1279;22560;-80
2022/05/26 11:27:18;;;;;;;2.90;1.10;;;;;;;21.41;44.21;98600.23;106025;1279;137601;-80
2022/05/26 11:29:51;;;;;;;9.00;1.40;;;;;;;21.60;44.01;98599.10;106283;1279;23362;-80
2022/05/26 11:38:21;;;;;;;4.90;1.20;;;;;;;22.51;41.00;98585.75;105936;1279;137286;-79
2022/05/26 11:41:09;;;;;;;1.20;0.60;;;;;;;22.64;39.99;98583.11;106138;1279;22538;-79
2022/05/26 11:44:02;;;;;;;6.10;1.10;;;;;;;22.91;40.54;98580.99;105974;1279;137493;-79
2022/05/26 11:46:43;;;;;;;1.60;0.70;;;;;;;23.20;38.90;98581.71;106179;1277;23328;-79
2022/05/26 11:49:43;;;;;;;3.40;0.60;;;;;;;23.33;37.80;98588.13;106007;1277;137422;-80
2022/05/26 11:52:25;;;;;;;5.20;0.90;;;;;;;23.41;36.66;98587.16;106153;1277;23160;-79
2022/05/26 11:54:52;;;;;;;5.10;0.90;;;;;;;23.44;36.62;98581.77;106021;1277;22622;-79
2022/05/26 11:57:37;;;;;;;5.30;0.80;;;;;;;23.48;36.34;98583.33;105963;1278;137394;-79
2022/05/26 12:00:20;;;;;;;5.90;1.40;;;;;;;23.47;36.54;98575.97;106136;1277;22570;-80
2022/05/26 12:02:52;;;;;;;5.40;1.10;;;;;;;23.37;37.36;98572.92;106116;1277;137334;-79
2022/05/26 12:05:28;;;;;;;3.20;1.20;;;;;;;23.44;37.78;98572.86;106197;1278;24130;-79
2022/05/26 12:07:57;;;;;;;4.70;0.90;;;;;;;23.51;37.64;98576.16;106072;1279;137241;-80
2022/05/26 12:10:50;;;;;;;6.50;1.40;;;;;;;23.32;37.20;98579.92;106160;1279;22547;-80
2022/05/26 12:13:27;;;;;;;10.60;1.10;;;;;;;22.96;37.46;98588.39;106581;1279;137462;-80
2022/05/26 12:16:28;;;;;;;4.60;1.10;;;;;;;22.67;38.39;98583.19;106070;1279;22639;-80
2022/05/26 12:19:04;;;;;;;5.20;1.40;;;;;;;22.45;39.39;98581.55;105880;1281;23933;-80
2022/05/26 12:21:43;;;;;;;5.20;1.20;;;;;;;22.29;39.94;98582.64;105902;1278;137106;-80
2022/05/26 12:24:37;;;;;;;2.30;0.90;;;;;;;22.19;40.40;98584.40;106007;1279;25331;-79
2022/05/26 12:27:04;;;;;;;6.70;1.40;;;;;;;22.13;40.12;98582.73;106041;1278;137239;-78
2022/05/26 12:29:48;;;;;;;6.50;1.10;;;;;;;22.14;40.07;98588.55;105877;1278;22534;-78